Decoded Metar for VMMC (MACAU in MACAU) (IATA:MFM) | Meteo·Mobile Aviation Weather
aviador You're here:

VMMC Decoded Metar

MACAU in MACAU
Report Time2018-10-17 04:30:00
UTC Time2018-10-17 04:52:20
Flight Rules vfr VFR
Wind360° at 12 kt
W.Decomp.*RWY 34: 11.2 kt HW 4.3 kt RCW
Visibility9000 m
Phenomena:N/A
Clouds:Few 010 Hf
Scattered 025 Hf
Expected CloudBase > 1,200 ft AGL from Temp-Dew spread
CeilingNone
Temp23°C (ISA +8)
Dew Point20°C (83% RH)
AAT22.4°C
QNH1012 hPa
Density Alt1,296 ft
Elevation20 ft
Report Wrong Elevation
Raw Report
VMMC 170430Z 36012KT 9000 FEW010 SCT025 23/20 Q1012 NOSIG=

Extra information for VMMC:More info

Metar Taf Metar & Taf Last 4 Metars F.Rules Stats Wind Profile Meteogram Temp Stats Airport Information Weather charts Add Link Nearby VenuesMetar ALERT Operation Metar Decoded Social comments